Time;durP1;ratioP1;P1;durP2;ratioP2;P2;SDS_P1;SDS_P2;PMS_P1;PMS_P2;Temp;Humidity;BMP_temperature;BMP_pressure;BME280_temperature;BME280_humidity;BME280_pressure;Samples;Min_cycle;Max_cycle;Signal;HPM_P1;HPM_P2
2021/03/09 00:01:02;;;;;;;63.38;25.33;;;4.00;99.90;;;;;;4977797;28;20042;-80
2021/03/09 00:03:28;;;;;;;62.75;26.08;;;4.00;99.90;;;;;;4963835;28;20051;-79
2021/03/09 00:05:55;;;;;;;68.43;25.08;;;4.00;99.90;;;;;;4962836;28;20077;-80
2021/03/09 00:08:21;;;;;;;72.13;27.02;;;4.00;99.90;;;;;;4970853;28;20047;-79
2021/03/09 00:10:47;;;;;;;68.38;26.00;;;4.00;99.90;;;;;;4966521;28;20051;-79
2021/03/09 00:13:13;;;;;;;73.53;27.60;;;4.00;99.90;;;;;;4970718;28;20053;-79
2021/03/09 00:15:39;;;;;;;65.53;27.17;;;4.00;99.90;;;;;;4970950;28;20072;-78
2021/03/09 00:18:10;;;;;;;69.47;27.08;;;4.00;99.90;;;;;;4964291;28;20133;-79
2021/03/09 00:20:37;;;;;;;68.65;24.98;;;4.10;99.90;;;;;;4978811;28;20453;-79
2021/03/09 00:23:04;;;;;;;70.32;26.17;;;4.10;99.90;;;;;;4963248;28;20053;-80
2021/03/09 00:25:31;;;;;;;73.80;26.35;;;4.10;99.90;;;;;;4969127;28;20074;-80
2021/03/09 00:27:57;;;;;;;79.22;27.70;;;4.10;99.90;;;;;;4963520;28;20150;-78
2021/03/09 00:30:24;;;;;;;73.40;27.73;;;4.10;99.90;;;;;;4960854;28;20070;-80
2021/03/09 00:32:50;;;;;;;63.05;24.75;;;4.10;99.90;;;;;;4963794;28;20074;-80
2021/03/09 00:35:16;;;;;;;74.63;26.85;;;4.10;99.90;;;;;;4962610;28;20137;-79
2021/03/09 00:37:42;;;;;;;75.20;28.20;;;4.10;99.90;;;;;;4982020;28;20133;-79
2021/03/09 00:40:09;;;;;;;76.63;26.92;;;4.10;99.90;;;;;;4976913;28;20055;-79
2021/03/09 00:42:36;;;;;;;68.40;28.05;;;4.10;99.90;;;;;;4979066;28;20553;-80
2021/03/09 00:45:02;;;;;;;69.63;25.73;;;4.10;99.90;;;;;;4980363;28;20062;-79
2021/03/09 00:47:32;;;;;;;81.20;28.40;;;4.10;99.90;;;;;;4968367;28;20410;-79
2021/03/09 00:49:59;;;;;;;73.32;25.70;;;4.10;99.90;;;;;;4969470;28;20058;-79
2021/03/09 00:52:25;;;;;;;74.13;25.40;;;4.10;99.90;;;;;;4978981;28;20050;-79
2021/03/09 00:54:51;;;;;;;66.22;23.20;;;4.10;99.90;;;;;;4966349;28;20088;-80
2021/03/09 00:57:18;;;;;;;64.90;22.75;;;4.10;99.90;;;;;;4967577;28;20054;-79
2021/03/09 00:59:44;;;;;;;58.92;22.58;;;4.10;99.90;;;;;;4964829;28;20474;-78
2021/03/09 01:02:10;;;;;;;63.05;22.90;;;4.00;99.90;;;;;;4962844;28;20075;-79
2021/03/09 01:04:36;;;;;;;67.32;21.65;;;4.10;99.90;;;;;;4967336;28;20059;-80
2021/03/09 01:07:03;;;;;;;60.83;22.33;;;4.10;99.90;;;;;;4964078;28;20507;-79
2021/03/09 01:09:29;;;;;;;56.45;19.63;;;4.10;99.90;;;;;;4967145;28;20519;-79
2021/03/09 01:11:55;;;;;;;47.63;19.08;;;4.10;99.90;;;;;;4970226;28;20055;-79
2021/03/09 01:14:21;;;;;;;62.53;23.25;;;4.10;99.90;;;;;;4983130;28;20086;-80
2021/03/09 01:16:47;;;;;;;54.45;20.75;;;4.10;99.90;;;;;;4983571;28;20077;-79
2021/03/09 01:19:14;;;;;;;55.00;20.23;;;4.10;99.90;;;;;;4985040;28;20061;-79
2021/03/09 01:21:40;;;;;;;55.78;20.00;;;4.00;99.90;;;;;;4984218;28;20069;-79
2021/03/09 01:24:07;;;;;;;57.83;19.00;;;4.10;99.90;;;;;;4986396;28;20076;-79
2021/03/09 01:26:33;;;;;;;56.00;19.20;;;4.00;99.90;;;;;;4985868;28;20082;-79
2021/03/09 01:28:59;;;;;;;48.42;17.10;;;4.10;99.90;;;;;;4973052;28;20109;-78
2021/03/09 01:31:26;;;;;;;43.65;18.67;;;4.10;99.90;;;;;;4970167;28;20532;-78
2021/03/09 01:33:52;;;;;;;49.17;17.90;;;4.10;99.90;;;;;;4983643;28;20058;-79
2021/03/09 01:36:18;;;;;;;57.33;18.95;;;4.10;99.90;;;;;;4986586;28;20046;-79
2021/03/09 01:38:44;;;;;;;43.83;17.33;;;4.10;99.90;;;;;;4971837;28;20050;-79
2021/03/09 01:41:12;;;;;;;55.75;17.23;;;4.10;99.90;;;;;;4987799;28;20278;-79
2021/03/09 01:43:38;;;;;;;52.85;18.35;;;4.10;99.90;;;;;;4970775;28;20077;-80
2021/03/09 01:46:04;;;;;;;44.90;18.25;;;4.10;99.90;;;;;;4968349;28;20482;-80
2021/03/09 01:48:45;;;;;;;58.50;19.30;;;4.10;99.90;;;;;;4981819;28;20082;-80
2021/03/09 01:51:16;;;;;;;47.67;17.73;;;4.10;99.90;;;;;;5000994;28;20480;-79
2021/03/09 01:53:43;;;;;;;52.72;20.17;;;4.10;99.90;;;;;;5002174;28;20065;-79
2021/03/09 01:56:10;;;;;;;54.67;18.60;;;4.10;99.90;;;;;;4999960;28;22526;-80
2021/03/09 01:58:40;;;;;;;49.85;18.92;;;4.10;99.90;;;;;;5005198;28;20417;-80
2021/03/09 02:01:06;;;;;;;54.25;19.45;;;4.10;99.90;;;;;;5003162;28;20048;-79
2021/03/09 02:03:33;;;;;;;59.10;20.58;;;4.10;99.90;;;;;;5000174;28;20056;-80
2021/03/09 02:06:01;;;;;;;57.55;21.33;;;4.10;99.90;;;;;;5002778;28;20046;-80
2021/03/09 02:08:27;;;;;;;60.42;20.50;;;4.10;99.90;;;;;;5004986;28;20046;-80
2021/03/09 02:10:54;;;;;;;56.67;21.20;;;4.10;99.90;;;;;;4989650;28;21069;-80
2021/03/09 02:13:44;;;;;;;51.13;20.58;;;4.20;99.90;;;;;;5004796;28;20525;-80
2021/03/09 02:16:19;;;;;;;60.30;21.55;;;4.20;99.90;;;;;;4987930;28;20056;-80
2021/03/09 02:19:36;;;;;;;61.97;22.95;;;4.20;99.90;;;;;;4982460;28;20460;-80
2021/03/09 02:22:27;;;;;;;61.50;22.58;;;4.20;99.90;;;;;;5001900;28;20048;-80
2021/03/09 02:24:59;;;;;;;63.35;22.58;;;4.20;99.90;;;;;;5002431;28;20066;-80
2021/03/09 02:27:29;;;;;;;58.08;23.25;;;4.20;99.90;;;;;;5006954;28;20049;-79
2021/03/09 02:30:18;;;;;;;62.95;23.38;;;4.20;99.90;;;;;;4999678;28;20061;-79
2021/03/09 02:32:54;;;;;;;72.93;24.48;;;4.20;99.90;;;;;;4989075;28;20129;-79
2021/03/09 02:35:24;;;;;;;60.88;23.63;;;4.30;99.90;;;;;;5004718;28;20965;-80
2021/03/09 02:37:54;;;;;;;67.13;25.35;;;4.30;99.90;;;;;;5004954;28;20054;-79
2021/03/09 02:40:22;;;;;;;69.65;26.98;;;4.30;99.90;;;;;;5004298;28;20517;-79
2021/03/09 02:43:07;;;;;;;67.25;26.63;;;4.30;99.90;;;;;;5006529;28;20060;-80
2021/03/09 02:45:33;;;;;;;;;;;4.30;99.90;;;;;;4989580;28;20046;-80
2021/03/09 02:48:01;;;;;;;68.32;25.45;;;4.30;99.90;;;;;;5003412;28;20419;-79
2021/03/09 02:50:28;;;;;;;64.28;25.75;;;4.30;99.90;;;;;;5004872;28;20050;-79
2021/03/09 02:53:00;;;;;;;80.88;26.50;;;4.30;99.90;;;;;;4988781;28;20054;-80
2021/03/09 02:55:28;;;;;;;82.82;28.95;;;4.30;99.90;;;;;;5011281;28;20503;-79
2021/03/09 02:57:56;;;;;;;82.53;29.23;;;4.30;99.90;;;;;;5002696;28;20050;-79
2021/03/09 03:00:23;;;;;;;75.15;27.98;;;4.30;99.90;;;;;;4986730;28;20045;-79
2021/03/09 03:02:50;;;;;;;83.13;30.88;;;4.30;99.90;;;;;;5004159;28;20053;-79
2021/03/09 03:05:18;;;;;;;88.90;30.48;;;4.30;99.90;;;;;;5005447;28;20050;-80
2021/03/09 03:07:45;;;;;;;87.85;30.35;;;4.40;99.90;;;;;;5005745;28;20146;-79
2021/03/09 03:10:17;;;;;;;81.95;28.75;;;4.30;99.90;;;;;;5002296;28;20064;-79
2021/03/09 03:12:44;;;;;;;82.70;30.60;;;4.40;99.90;;;;;;5004679;28;20130;-79
2021/03/09 03:15:12;;;;;;;83.25;29.08;;;4.40;99.90;;;;;;4991309;28;20079;-80
2021/03/09 03:17:40;;;;;;;90.88;33.08;;;4.40;99.90;;;;;;4984059;28;20050;-79
2021/03/09 03:20:11;;;;;;;92.28;32.85;;;4.40;99.90;;;;;;4999699;28;20512;-79
2021/03/09 03:22:40;;;;;;;97.00;32.40;;;4.40;99.90;;;;;;5004036;28;20059;-79
2021/03/09 03:25:08;;;;;;;100.28;32.75;;;4.40;99.90;;;;;;4985954;28;20128;-79
2021/03/09 03:27:38;;;;;;;99.50;31.98;;;4.40;99.90;;;;;;5004821;28;20050;-79
2021/03/09 03:30:07;;;;;;;123.78;35.95;;;4.40;99.90;;;;;;5000533;28;22271;-79
2021/03/09 03:32:35;;;;;;;101.68;33.10;;;4.40;99.90;;;;;;4999982;28;21150;-79
2021/03/09 03:35:02;;;;;;;116.53;32.92;;;4.40;99.90;;;;;;5002732;28;20406;-78
2021/03/09 03:37:29;;;;;;;108.82;33.72;;;4.40;99.90;;;;;;4994709;28;20141;-78
2021/03/09 03:39:55;;;;;;;116.35;34.58;;;4.50;99.90;;;;;;4987676;28;20050;-78
2021/03/09 03:42:22;;;;;;;109.35;34.53;;;4.50;99.90;;;;;;4995335;28;20052;-79
2021/03/09 03:44:48;;;;;;;114.35;35.20;;;4.50;99.90;;;;;;4986895;28;20054;-78
2021/03/09 03:47:15;;;;;;;124.15;35.20;;;4.50;99.90;;;;;;5004753;28;20511;-78
2021/03/09 03:49:42;;;;;;;116.10;36.00;;;4.50;99.90;;;;;;5003689;28;20057;-79
2021/03/09 03:52:18;;;;;;;113.82;34.58;;;4.50;99.90;;;;;;4993026;28;20050;-78
2021/03/09 03:55:00;;;;;;;116.18;33.58;;;4.60;99.90;;;;;;5005263;28;20053;-78
2021/03/09 03:57:41;;;;;;;103.40;35.58;;;4.60;99.90;;;;;;4984623;28;20421;-78
2021/03/09 04:00:08;;;;;;;134.18;35.78;;;4.60;99.90;;;;;;5005185;28;20052;-79
2021/03/09 04:02:36;;;;;;;113.97;33.83;;;4.60;99.90;;;;;;4987406;28;20513;-79
2021/03/09 04:05:06;;;;;;;125.72;34.70;;;4.60;99.90;;;;;;5003438;28;20073;-79
2021/03/09 04:07:33;;;;;;;110.38;31.58;;;4.60;99.90;;;;;;5006119;28;20062;-78
2021/03/09 04:10:00;;;;;;;125.25;36.65;;;4.60;99.90;;;;;;4986828;28;20053;-78
2021/03/09 04:12:28;;;;;;;120.55;35.65;;;4.70;99.90;;;;;;5006895;28;20520;-79
2021/03/09 04:14:59;;;;;;;120.07;35.75;;;4.70;99.90;;;;;;4991086;28;20061;-79
2021/03/09 04:17:27;;;;;;;132.48;38.53;;;4.70;99.90;;;;;;4985189;28;20054;-79
2021/03/09 04:19:57;;;;;;;142.60;36.28;;;4.70;99.90;;;;;;4992505;28;20046;-79
2021/03/09 04:22:25;;;;;;;130.05;36.97;;;4.70;99.90;;;;;;4984754;28;20406;-79
2021/03/09 04:24:52;;;;;;;136.45;35.15;;;4.80;99.90;;;;;;5004541;28;20136;-79
2021/03/09 04:27:21;;;;;;;128.65;34.42;;;4.80;99.90;;;;;;5000326;28;20585;-79
2021/03/09 04:29:55;;;;;;;115.50;36.88;;;4.80;99.90;;;;;;5004009;28;20129;-78
2021/03/09 04:32:23;;;;;;;114.82;33.42;;;4.80;99.90;;;;;;5003104;28;20054;-78
2021/03/09 04:34:51;;;;;;;124.68;36.45;;;4.80;99.90;;;;;;4981429;28;20410;-78
2021/03/09 04:37:35;;;;;;;135.15;36.35;;;4.90;99.90;;;;;;5000139;28;20065;-78
2021/03/09 04:40:03;;;;;;;151.40;35.53;;;4.90;99.90;;;;;;5007619;28;21840;-79
2021/03/09 04:42:30;;;;;;;140.80;36.30;;;4.90;99.90;;;;;;5006236;28;20085;-79
2021/03/09 04:44:56;;;;;;;146.05;35.60;;;4.90;99.90;;;;;;5006185;28;20141;-79
2021/03/09 04:47:24;;;;;;;107.75;32.33;;;4.90;99.90;;;;;;4989254;28;20061;-81
2021/03/09 04:49:55;;;;;;;129.70;35.67;;;4.90;99.90;;;;;;4994993;28;20065;-79
2021/03/09 04:52:26;;;;;;;116.55;32.63;;;5.00;99.90;;;;;;5005228;28;20168;-79
2021/03/09 04:54:53;;;;;;;124.70;34.05;;;5.00;99.90;;;;;;5008114;28;20438;-78
2021/03/09 04:57:38;;;;;;;149.88;35.83;;;5.00;99.90;;;;;;4990338;28;20462;-79
2021/03/09 05:00:07;;;;;;;129.88;33.20;;;5.00;99.90;;;;;;5007389;28;20115;-78
2021/03/09 05:02:40;;;;;;;128.90;32.88;;;5.00;99.90;;;;;;5004310;28;20046;-79
2021/03/09 05:05:07;;;;;;;144.40;32.58;;;5.10;99.90;;;;;;4987707;28;20058;-79
2021/03/09 05:07:33;;;;;;;125.13;32.40;;;5.10;99.90;;;;;;5005337;28;20088;-79
2021/03/09 05:09:59;;;;;;;120.68;31.90;;;5.10;99.90;;;;;;5006627;28;20052;-78
2021/03/09 05:12:26;;;;;;;110.80;31.25;;;5.10;99.90;;;;;;5006628;28;20404;-79
2021/03/09 05:14:52;;;;;;;120.88;30.50;;;5.20;99.90;;;;;;5005661;28;20466;-79
2021/03/09 05:17:18;;;;;;;124.65;33.45;;;5.20;99.90;;;;;;4986449;28;20056;-78
2021/03/09 05:19:45;;;;;;;148.77;34.53;;;5.20;99.90;;;;;;5007335;28;20058;-78
2021/03/09 05:22:11;;;;;;;123.55;31.85;;;5.20;99.90;;;;;;4988013;28;20050;-79
2021/03/09 05:24:37;;;;;;;135.48;31.10;;;5.20;99.90;;;;;;4990507;28;20842;-79
2021/03/09 05:27:04;;;;;;;122.72;31.15;;;5.30;99.90;;;;;;5005598;28;20049;-79
2021/03/09 05:29:31;;;;;;;142.65;34.00;;;5.30;99.90;;;;;;4999705;28;20057;-79
2021/03/09 05:31:57;;;;;;;154.60;32.33;;;5.20;99.90;;;;;;4984312;28;20502;-78
2021/03/09 05:34:24;;;;;;;124.05;31.85;;;5.30;99.90;;;;;;5004098;28;20054;-80
2021/03/09 05:36:52;;;;;;;140.07;31.65;;;5.30;99.90;;;;;;5008065;28;20046;-79
2021/03/09 05:39:18;;;;;;;118.22;31.55;;;5.30;99.90;;;;;;4990593;28;20153;-79
2021/03/09 05:41:44;;;;;;;114.82;31.52;;;5.30;99.90;;;;;;4990093;28;20049;-80
2021/03/09 05:44:10;;;;;;;114.78;30.20;;;5.30;99.90;;;;;;5003990;28;20049;-79
2021/03/09 05:46:37;;;;;;;109.38;30.45;;;5.30;99.90;;;;;;5006916;28;20133;-79
2021/03/09 05:49:03;;;;;;;101.57;28.90;;;5.30;99.90;;;;;;5003175;28;20060;-79
2021/03/09 05:51:45;;;;;;;97.97;28.02;;;5.30;99.90;;;;;;5007391;28;20583;-79
2021/03/09 05:54:11;;;;;;;116.88;31.40;;;5.40;99.90;;;;;;5004616;28;21518;-78
2021/03/09 05:56:38;;;;;;;118.43;30.08;;;5.30;99.90;;;;;;5004976;28;20060;-79
2021/03/09 05:59:04;;;;;;;110.57;29.20;;;5.40;99.90;;;;;;4988544;28;20078;-79
2021/03/09 06:01:31;;;;;;;105.32;27.98;;;5.40;99.90;;;;;;5000441;28;20609;-80
2021/03/09 06:03:59;;;;;;;111.80;28.92;;;5.40;99.90;;;;;;5004221;28;20053;-79
2021/03/09 06:06:25;;;;;;;141.57;31.77;;;5.40;99.90;;;;;;5003888;28;20485;-79
2021/03/09 06:08:51;;;;;;;103.57;26.50;;;5.40;99.90;;;;;;5005465;28;20052;-80
2021/03/09 06:11:19;;;;;;;85.35;20.75;;;5.40;99.90;;;;;;4988359;28;20164;-79
2021/03/09 06:13:47;;;;;;;57.10;14.88;;;5.40;99.90;;;;;;5002371;28;20060;-79
2021/03/09 06:16:14;;;;;;;34.22;11.40;;;5.50;99.90;;;;;;4997130;28;20037;-80
2021/03/09 06:18:53;;;;;;;38.42;9.77;;;5.50;99.90;;;;;;5003858;28;20088;-79
2021/03/09 06:21:20;;;;;;;28.38;8.60;;;5.50;99.90;;;;;;5006073;28;20054;-80
2021/03/09 06:23:46;;;;;;;20.85;7.28;;;5.60;99.90;;;;;;5006939;28;20244;-79
2021/03/09 06:26:35;;;;;;;23.25;6.95;;;5.60;99.90;;;;;;4987087;28;20154;-80
2021/03/09 06:29:11;;;;;;;21.13;6.28;;;5.60;99.90;;;;;;4990168;28;20056;-80
2021/03/09 06:31:59;;;;;;;16.48;5.45;;;5.60;99.90;;;;;;4991008;28;20060;-80
2021/03/09 06:34:28;;;;;;;17.67;6.18;;;5.60;99.90;;;;;;5002173;28;20041;-81
2021/03/09 06:37:06;;;;;;;15.13;5.43;;;5.60;99.90;;;;;;5007428;28;20064;-80
2021/03/09 06:39:50;;;;;;;16.27;4.97;;;5.60;99.90;;;;;;5000224;28;20133;-79
2021/03/09 06:42:30;;;;;;;15.95;5.30;;;5.60;99.90;;;;;;4999300;28;20096;-79
2021/03/09 06:44:58;;;;;;;11.93;4.63;;;5.70;99.90;;;;;;5006160;28;20061;-80
2021/03/09 06:47:39;;;;;;;10.45;4.47;;;5.60;99.90;;;;;;4991122;28;20141;-78
2021/03/09 06:50:09;;;;;;;16.00;4.63;;;5.70;99.90;;;;;;4975771;28;20056;-82
2021/03/09 06:52:35;;;;;;;12.95;4.60;;;5.70;99.90;;;;;;4984347;28;20117;-81
2021/03/09 06:55:03;;;;;;;10.02;4.28;;;5.70;99.90;;;;;;4994301;28;20064;-78
2021/03/09 06:57:32;;;;;;;9.02;4.50;;;5.70;99.90;;;;;;4992535;28;20056;-80
2021/03/09 06:59:58;;;;;;;13.93;4.75;;;5.70;99.90;;;;;;4992046;28;20493;-82
2021/03/09 07:02:29;;;;;;;12.70;4.70;;;5.70;99.90;;;;;;4990476;28;20405;-81
2021/03/09 07:05:07;;;;;;;14.65;5.20;;;5.80;99.90;;;;;;4999550;28;20045;-81
2021/03/09 07:07:39;;;;;;;14.48;5.15;;;5.80;99.90;;;;;;4984844;28;20149;-81
2021/03/09 07:10:12;;;;;;;13.35;5.53;;;5.80;99.90;;;;;;4989675;28;20140;-83
2021/03/09 07:12:40;;;;;;;17.80;4.55;;;5.80;99.90;;;;;;4985739;28;20064;-82
2021/03/09 07:15:09;;;;;;;14.20;4.88;;;5.90;99.90;;;;;;4986405;28;20587;-79
2021/03/09 07:17:38;;;;;;;12.00;4.32;;;5.90;99.90;;;;;;4998488;28;21014;-81
2021/03/09 07:20:13;;;;;;;9.63;4.15;;;5.90;99.90;;;;;;4978474;28;20050;-82
2021/03/09 07:22:52;;;;;;;10.20;5.13;;;6.00;99.90;;;;;;5002540;28;20060;-80
2021/03/09 07:25:19;;;;;;;14.27;4.32;;;6.00;99.90;;;;;;4982705;28;20061;-79
2021/03/09 07:27:57;;;;;;;12.82;4.10;;;6.10;99.90;;;;;;4988540;28;20046;-81
2021/03/09 07:30:27;;;;;;;17.00;4.60;;;6.10;99.90;;;;;;5003713;28;20489;-79
2021/03/09 07:32:56;;;;;;;17.15;4.15;;;6.10;99.90;;;;;;4985010;28;20058;-81
2021/03/09 07:35:24;;;;;;;11.25;3.92;;;6.10;99.90;;;;;;4997558;28;20065;-80
2021/03/09 07:37:52;;;;;;;12.32;4.13;;;6.10;99.90;;;;;;4986922;28;20133;-81
2021/03/09 07:40:27;;;;;;;14.32;4.28;;;6.20;99.90;;;;;;4987999;28;20049;-79
2021/03/09 07:42:55;;;;;;;13.52;4.40;;;6.20;99.90;;;;;;4996438;28;20105;-80
2021/03/09 07:45:32;;;;;;;11.65;4.05;;;6.20;99.90;;;;;;4990779;28;20092;-83
2021/03/09 07:48:06;;;;;;;10.57;3.75;;;6.20;99.90;;;;;;5004022;28;20116;-82
2021/03/09 07:50:43;;;;;;;9.38;3.47;;;6.30;99.90;;;;;;5007023;28;20037;-82
2021/03/09 07:53:10;;;;;;;6.85;3.67;;;6.30;99.90;;;;;;5008329;28;20046;-80
2021/03/09 07:55:37;;;;;;;10.52;3.80;;;6.20;99.90;;;;;;4985640;28;20073;-81
2021/03/09 07:58:17;;;;;;;9.48;3.33;;;6.20;99.90;;;;;;5000050;28;20033;-80
2021/03/09 08:00:53;;;;;;;13.70;3.50;;;6.20;99.90;;;;;;5005904;28;20122;-81
2021/03/09 08:03:44;;;;;;;12.90;4.63;;;6.10;99.90;;;;;;4995188;28;20030;-81
2021/03/09 08:06:14;;;;;;;10.10;4.00;;;6.10;99.90;;;;;;4984179;28;20040;-82
2021/03/09 08:08:41;;;;;;;11.75;4.72;;;6.20;99.90;;;;;;4987890;28;20811;-82
2021/03/09 08:11:28;;;;;;;9.68;4.07;;;6.30;99.90;;;;;;5005058;28;20796;-79
2021/03/09 08:14:03;;;;;;;12.52;4.03;;;6.30;99.90;;;;;;4992753;28;20046;-80
2021/03/09 08:16:33;;;;;;;13.20;5.18;;;6.40;99.90;;;;;;5004064;28;20120;-77
2021/03/09 08:19:19;;;;;;;10.57;4.25;;;6.50;99.90;;;;;;5005870;28;20053;-77
2021/03/09 08:22:02;;;;;;;8.38;4.40;;;6.50;99.90;;;;;;5006327;28;20128;-78
2021/03/09 08:24:42;;;;;;;12.68;3.85;;;6.60;99.90;;;;;;4996521;28;20045;-79
2021/03/09 08:27:28;;;;;;;8.10;3.75;;;6.60;99.90;;;;;;5007437;28;20119;-79
2021/03/09 08:30:21;;;;;;;11.82;3.92;;;6.60;99.90;;;;;;4992598;28;20580;-78
2021/03/09 08:32:47;;;;;;;12.25;4.25;;;6.60;99.90;;;;;;5006047;28;20054;-79
2021/03/09 08:35:13;;;;;;;10.73;3.85;;;6.60;99.90;;;;;;5004555;28;20132;-79
2021/03/09 08:37:48;;;;;;;10.80;3.33;;;6.50;99.90;;;;;;5008627;28;20136;-77
2021/03/09 08:40:16;;;;;;;8.70;3.95;;;6.60;99.90;;;;;;5007187;28;20050;-78
2021/03/09 08:43:00;;;;;;;5.57;3.33;;;6.60;99.90;;;;;;5004051;28;20524;-78
2021/03/09 08:45:39;;;;;;;12.07;3.58;;;6.60;99.90;;;;;;4988201;28;20042;-80
2021/03/09 08:48:09;;;;;;;13.07;6.45;;;6.70;99.90;;;;;;5002115;28;20058;-80
2021/03/09 08:50:43;;;;;;;13.73;4.72;;;6.70;99.90;;;;;;4987784;28;20058;-80
2021/03/09 08:53:38;;;;;;;15.02;4.00;;;6.80;99.90;;;;;;4987818;28;20046;-79
2021/03/09 08:56:06;;;;;;;8.60;3.97;;;6.90;99.90;;;;;;5003521;28;20054;-79
2021/03/09 08:58:39;;;;;;;9.88;4.43;;;7.10;99.90;;;;;;4986895;28;20054;-79
2021/03/09 09:01:06;;;;;;;10.85;4.60;;;7.20;99.90;;;;;;4987616;28;20059;-78
2021/03/09 09:03:37;;;;;;;10.52;3.80;;;7.30;99.90;;;;;;4989187;28;20182;-79
2021/03/09 09:06:07;;;;;;;11.43;3.90;;;7.50;99.90;;;;;;4992316;28;20463;-79
2021/03/09 09:08:34;;;;;;;8.82;4.25;;;7.50;99.90;;;;;;4986625;28;20137;-79
2021/03/09 09:11:01;;;;;;;9.95;4.38;;;7.60;99.90;;;;;;4986362;28;20054;-80
2021/03/09 09:13:33;;;;;;;5.78;3.40;;;7.70;99.90;;;;;;4986283;28;20430;-79
2021/03/09 09:15:59;;;;;;;8.75;3.53;;;7.70;99.90;;;;;;4985045;28;20057;-78
2021/03/09 09:18:27;;;;;;;5.95;2.88;;;7.80;99.90;;;;;;4972772;28;20051;-80
2021/03/09 09:20:54;;;;;;;6.25;3.13;;;7.80;99.90;;;;;;4982155;28;20061;-80
2021/03/09 09:23:23;;;;;;;5.63;2.83;;;7.70;99.90;;;;;;4964423;28;20057;-79
2021/03/09 09:25:52;;;;;;;8.75;2.72;;;7.60;99.90;;;;;;4984552;28;20051;-79
2021/03/09 09:28:24;;;;;;;5.28;2.28;;;7.70;99.90;;;;;;4966425;28;20045;-79
2021/03/09 09:30:51;;;;;;;8.18;2.38;;;7.70;99.90;;;;;;4966953;28;20069;-79
2021/03/09 09:33:29;;;;;;;6.65;2.50;;;7.80;99.90;;;;;;4966579;28;20054;-79
2021/03/09 09:35:57;;;;;;;6.70;2.65;;;7.80;99.90;;;;;;4968352;28;20081;-78
2021/03/09 09:38:24;;;;;;;5.20;2.53;;;8.00;99.90;;;;;;4981730;28;20085;-79
2021/03/09 09:40:55;;;;;;;5.10;2.75;;;8.00;99.90;;;;;;4973736;28;20085;-79
2021/03/09 09:43:27;;;;;;;6.47;3.22;;;8.10;99.90;;;;;;4985707;28;20060;-79
2021/03/09 09:46:00;;;;;;;13.90;3.28;;;8.10;99.90;;;;;;4971030;28;20066;-78
2021/03/09 09:48:37;;;;;;;;;;;8.10;99.90;;;;;;4969053;28;633491;-80
2021/03/09 09:51:06;;;;;;;6.38;3.58;;;8.10;99.90;;;;;;5007581;28;19925;-79
2021/03/09 09:53:38;;;;;;;5.45;3.17;;;8.00;99.90;;;;;;4998227;28;20394;-81
2021/03/09 09:56:09;;;;;;;6.90;3.67;;;7.90;99.90;;;;;;4984292;28;20045;-83
2021/03/09 09:59:00;;;;;;;10.45;4.03;;;7.90;99.90;;;;;;5002309;28;20141;-79
2021/03/09 10:01:32;;;;;;;8.82;3.55;;;7.90;99.90;;;;;;4991364;28;20130;-80
2021/03/09 10:04:04;;;;;;;7.97;4.40;;;7.90;99.90;;;;;;4997100;28;20050;-82
2021/03/09 10:06:40;;;;;;;5.75;3.03;;;7.90;99.90;;;;;;4993196;28;20087;-80
2021/03/09 10:09:22;;;;;;;8.35;3.90;;;7.90;99.90;;;;;;4990245;28;20052;-80
2021/03/09 10:11:51;;;;;;;9.13;3.75;;;7.90;99.90;;;;;;5005888;28;20037;-80
2021/03/09 10:14:19;;;;;;;7.07;3.50;;;7.90;99.90;;;;;;4991566;28;20460;-80
2021/03/09 10:16:46;;;;;;;8.57;2.95;;;7.90;99.90;;;;;;4991241;28;20054;-79
2021/03/09 10:19:16;;;;;;;9.05;4.38;;;7.90;99.90;;;;;;5008557;28;20065;-79
2021/03/09 10:21:46;;;;;;;6.85;3.72;;;7.90;99.90;;;;;;4992126;28;20468;-78
2021/03/09 10:24:29;;;;;;;6.68;4.00;;;7.90;99.90;;;;;;5009350;28;20526;-77
2021/03/09 10:26:56;;;;;;;8.35;4.20;;;8.10;99.90;;;;;;4991394;28;20409;-81
2021/03/09 10:29:24;;;;;;;8.63;4.68;;;8.10;99.90;;;;;;5002632;28;20112;-80
2021/03/09 10:31:58;;;;;;;13.82;5.25;;;8.10;99.90;;;;;;4993445;28;20133;-80
2021/03/09 10:34:48;;;;;;;10.07;4.22;;;8.20;99.90;;;;;;4995547;28;20053;-80
2021/03/09 10:37:16;;;;;;;7.60;4.20;;;8.30;99.90;;;;;;4997044;28;20046;-81
2021/03/09 10:39:57;;;;;;;13.90;5.00;;;8.40;99.90;;;;;;5007416;28;20504;-78
2021/03/09 10:42:43;;;;;;;7.20;3.78;;;8.50;99.90;;;;;;5009427;28;20077;-77
2021/03/09 10:45:15;;;;;;;7.43;3.88;;;8.50;99.90;;;;;;4978231;28;20428;-78
2021/03/09 10:47:52;;;;;;;12.10;4.00;;;8.50;99.90;;;;;;4994390;28;20152;-79
2021/03/09 10:50:24;;;;;;;9.55;4.32;;;8.60;99.90;;;;;;4993659;28;20057;-80
2021/03/09 10:52:51;;;;;;;8.98;3.55;;;8.60;99.90;;;;;;5013799;28;20069;-81
2021/03/09 10:55:18;;;;;;;12.25;4.70;;;8.60;99.90;;;;;;5013966;28;20056;-79
2021/03/09 10:57:44;;;;;;;8.90;4.10;;;8.50;99.90;;;;;;5003563;28;20093;-80
2021/03/09 11:00:16;;;;;;;10.60;4.40;;;8.50;99.90;;;;;;4994887;28;20100;-79
2021/03/09 11:02:42;;;;;;;7.03;3.75;;;8.60;99.90;;;;;;5010011;28;20114;-81
2021/03/09 11:05:11;;;;;;;9.00;4.20;;;8.60;99.90;;;;;;4994239;28;20073;-80
2021/03/09 11:07:39;;;;;;;7.07;3.85;;;8.70;99.90;;;;;;4999627;28;20144;-79
2021/03/09 11:10:07;;;;;;;8.98;4.50;;;8.80;99.90;;;;;;5006799;28;20140;-80
2021/03/09 11:12:34;;;;;;;11.15;4.68;;;9.00;99.90;;;;;;4991013;28;20142;-79
2021/03/09 11:15:00;;;;;;;9.20;4.28;;;9.30;99.90;;;;;;4999067;28;20065;-80
2021/03/09 11:17:27;;;;;;;9.63;4.05;;;9.60;99.90;;;;;;5006681;28;20074;-80
2021/03/09 11:19:53;;;;;;;7.70;3.95;;;9.80;99.90;;;;;;5003414;28;22427;-79
2021/03/09 11:22:19;;;;;;;12.65;4.10;;;10.00;99.90;;;;;;4987139;28;20149;-79
2021/03/09 11:24:46;;;;;;;8.93;4.18;;;10.10;99.90;;;;;;5004931;28;20051;-80
2021/03/09 11:27:12;;;;;;;7.32;4.10;;;9.90;99.90;;;;;;4995526;28;20145;-81
2021/03/09 11:29:40;;;;;;;10.35;4.75;;;9.90;99.90;;;;;;4993637;28;20049;-81
2021/03/09 11:32:09;;;;;;;13.57;4.90;;;9.90;99.90;;;;;;5000970;28;20497;-80
2021/03/09 11:34:36;;;;;;;11.52;4.63;;;10.00;99.90;;;;;;4982393;28;20187;-82
2021/03/09 11:37:02;;;;;;;9.48;4.35;;;10.30;99.90;;;;;;4977269;28;20481;-82
2021/03/09 11:39:29;;;;;;;6.07;3.58;;;10.40;99.90;;;;;;4992991;28;20058;-85
2021/03/09 11:41:55;;;;;;;7.40;3.75;;;10.30;99.90;;;;;;4996302;28;20050;-84
2021/03/09 11:44:22;;;;;;;7.22;4.05;;;10.20;99.90;;;;;;4994338;28;20117;-83
2021/03/09 11:46:49;;;;;;;5.65;3.30;;;10.00;99.90;;;;;;5009067;28;20092;-81
2021/03/09 11:49:17;;;;;;;5.70;2.90;;;9.70;99.90;;;;;;4995898;28;20081;-81
2021/03/09 11:51:43;;;;;;;7.55;3.63;;;9.60;99.90;;;;;;4995711;28;20065;-84
2021/03/09 11:54:12;;;;;;;9.00;4.18;;;9.50;99.90;;;;;;4998327;28;20569;-84
2021/03/09 11:56:38;;;;;;;6.95;4.68;;;9.40;99.90;;;;;;5005228;28;20465;-79
2021/03/09 11:59:04;;;;;;;8.50;3.88;;;9.30;99.90;;;;;;4991217;28;20054;-80
2021/03/09 12:01:32;;;;;;;12.45;3.88;;;9.30;99.90;;;;;;4985502;28;20049;-81
2021/03/09 12:04:00;;;;;;;6.38;3.83;;;9.40;99.90;;;;;;4983654;28;20114;-79
2021/03/09 12:06:27;;;;;;;6.88;3.20;;;9.40;99.90;;;;;;4974512;28;20098;-82
2021/03/09 12:08:58;;;;;;;6.28;3.80;;;9.30;99.90;;;;;;4988345;28;23207;-84
2021/03/09 12:11:32;;;;;;;8.48;3.95;;;9.30;99.90;;;;;;4963618;28;20055;-85
2021/03/09 12:14:49;;;;;;;4.47;3.03;;;9.30;99.90;;;;;;4961978;28;20057;-86
2021/03/09 12:17:36;;;;;;;5.63;2.92;;;9.20;99.90;;;;;;4948400;28;20050;-85
2021/03/09 12:20:04;;;;;;;3.95;2.75;;;9.20;99.90;;;;;;4978946;28;20597;-83
2021/03/09 12:22:30;;;;;;;3.85;2.90;;;9.20;99.90;;;;;;5001790;28;20042;-85
2021/03/09 12:24:56;;;;;;;4.32;2.53;;;9.20;99.90;;;;;;4990830;28;20069;-86
2021/03/09 12:27:23;;;;;;;4.75;2.40;;;9.30;99.90;;;;;;4986413;28;20046;-88
2021/03/09 12:29:50;;;;;;;4.25;3.05;;;9.30;99.90;;;;;;5009376;28;20072;-87
2021/03/09 12:32:17;;;;;;;6.07;2.78;;;9.40;99.90;;;;;;5000937;28;20113;-87
2021/03/09 12:34:43;;;;;;;7.32;2.80;;;9.40;99.90;;;;;;5011303;28;20060;-84
2021/03/09 12:37:10;;;;;;;4.75;3.17;;;9.40;99.90;;;;;;4986012;28;20153;-83
2021/03/09 12:39:51;;;;;;;4.53;2.63;;;9.40;99.90;;;;;;4996061;28;20042;-84
2021/03/09 12:42:17;;;;;;;7.85;3.40;;;9.50;99.90;;;;;;5011347;28;20060;-86
2021/03/09 12:44:43;;;;;;;5.68;2.40;;;9.50;99.90;;;;;;5006616;28;20102;-87
2021/03/09 12:47:10;;;;;;;4.32;2.65;;;9.60;99.90;;;;;;5020848;28;20077;-84
2021/03/09 12:49:38;;;;;;;3.60;2.72;;;9.70;99.90;;;;;;5003390;28;20121;-85
2021/03/09 12:52:05;;;;;;;6.00;2.63;;;9.70;99.90;;;;;;4992657;28;20103;-83
2021/03/09 12:54:32;;;;;;;3.75;2.83;;;9.80;99.90;;;;;;4996982;28;20057;-85
2021/03/09 12:56:58;;;;;;;6.47;2.58;;;9.80;99.90;;;;;;4996193;28;20099;-87
2021/03/09 12:59:24;;;;;;;2.85;2.38;;;9.70;99.90;;;;;;4985328;28;20034;-84